createdAt,value
2023-04-08T00:01:21.188Z,8.98
2023-04-08T00:03:48.727Z,10.90
2023-04-08T00:06:16.327Z,8.95
2023-04-08T00:08:43.738Z,9.55
2023-04-08T00:11:10.992Z,9.93
2023-04-08T00:13:38.242Z,9.52
2023-04-08T00:16:05.774Z,9.60
2023-04-08T00:18:33.082Z,7.75
2023-04-08T00:21:01.059Z,10.38
2023-04-08T00:23:28.362Z,9.60
2023-04-08T00:25:55.781Z,8.30
2023-04-08T00:28:23.104Z,9.00
2023-04-08T00:30:51.767Z,10.10
2023-04-08T00:33:19.063Z,9.60
2023-04-08T00:35:46.405Z,8.63
2023-04-08T00:38:13.714Z,6.63
2023-04-08T00:40:40.980Z,8.13
2023-04-08T00:43:10.746Z,15.55
2023-04-08T00:45:38.069Z,6.80
2023-04-08T00:48:05.903Z,6.30
2023-04-08T00:50:33.162Z,7.78
2023-04-08T00:53:00.524Z,7.82
2023-04-08T00:55:27.803Z,6.80
2023-04-08T00:57:55.142Z,7.40
2023-04-08T01:00:22.519Z,5.30
2023-04-08T01:02:52.820Z,7.30
2023-04-08T01:05:39.067Z,5.30
2023-04-08T01:08:07.672Z,4.68
2023-04-08T01:10:35.982Z,8.23
2023-04-08T01:13:08.433Z,8.25
2023-04-08T01:15:37.539Z,7.28
2023-04-08T01:18:07.439Z,7.70
2023-04-08T01:20:35.390Z,7.22
2023-04-08T01:23:03.906Z,6.70
2023-04-08T01:25:32.648Z,6.05
2023-04-08T01:28:02.038Z,5.50
2023-04-08T01:30:31.032Z,6.72
2023-04-08T01:32:58.959Z,9.98
2023-04-08T01:35:26.459Z,7.13
2023-04-08T01:37:54.884Z,6.38
2023-04-08T01:40:22.139Z,8.05
2023-04-08T01:42:50.484Z,7.32
2023-04-08T01:45:18.167Z,7.65
2023-04-08T01:47:48.401Z,6.10
2023-04-08T01:50:16.672Z,5.97
2023-04-08T01:52:44.976Z,7.63
2023-04-08T01:55:12.324Z,7.53
2023-04-08T01:57:41.031Z,6.88
2023-04-08T02:00:13.260Z,8.13
2023-04-08T02:02:43.609Z,7.47
2023-04-08T02:05:10.977Z,6.63
2023-04-08T02:07:38.289Z,7.40
2023-04-08T02:10:05.852Z,7.15
2023-04-08T02:12:34.301Z,8.32
2023-04-08T02:15:01.684Z,6.43
2023-04-08T02:17:44.608Z,8.18
2023-04-08T02:20:16.884Z,9.23
2023-04-08T02:22:47.211Z,7.82
2023-04-08T02:25:15.750Z,5.47
2023-04-08T02:27:44.094Z,5.88
2023-04-08T02:30:12.424Z,10.35
2023-04-08T02:32:40.503Z,8.52
2023-04-08T02:35:08.524Z,8.85
2023-04-08T02:37:35.844Z,5.85
2023-04-08T02:40:03.213Z,4.88
2023-04-08T02:42:30.502Z,6.00
2023-04-08T02:44:58.089Z,8.02
2023-04-08T02:47:25.415Z,13.45
2023-04-08T02:49:53.681Z,7.82
2023-04-08T02:52:21.177Z,7.75
2023-04-08T02:54:48.458Z,7.80
2023-04-08T02:57:17.084Z,7.47
2023-04-08T02:59:44.372Z,7.72
2023-04-08T03:02:11.689Z,8.15
2023-04-08T03:04:38.973Z,11.82
2023-04-08T03:07:08.945Z,11.25
2023-04-08T03:09:36.184Z,10.55
2023-04-08T03:12:03.424Z,8.45
2023-04-08T03:14:30.956Z,8.10
2023-04-08T03:16:58.326Z,9.18
2023-04-08T03:19:33.262Z,8.85
2023-04-08T03:22:00.540Z,11.52
2023-04-08T03:24:27.772Z,10.90
2023-04-08T03:26:55.021Z,9.30
2023-04-08T03:29:22.324Z,8.98
2023-04-08T03:31:49.793Z,9.23
2023-04-08T03:34:17.084Z,6.82
2023-04-08T03:36:44.422Z,8.60
2023-04-08T03:39:11.679Z,8.90
2023-04-08T03:41:38.982Z,7.85
2023-04-08T03:44:06.322Z,7.38
2023-04-08T03:46:33.569Z,9.05
2023-04-08T03:49:00.910Z,10.73
2023-04-08T03:51:28.713Z,10.00
2023-04-08T03:53:55.985Z,8.35
2023-04-08T03:56:23.230Z,8.13
2023-04-08T03:58:50.661Z,8.52
2023-04-08T04:01:18.110Z,8.77
2023-04-08T04:03:45.609Z,12.23
2023-04-08T04:06:12.920Z,9.80
2023-04-08T04:08:40.317Z,9.13
2023-04-08T04:11:07.625Z,8.15
2023-04-08T04:13:34.912Z,9.18
2023-04-08T04:16:02.189Z,11.70
2023-04-08T04:18:29.588Z,9.40
2023-04-08T04:20:56.992Z,11.10
2023-04-08T04:23:25.905Z,10.40
2023-04-08T04:25:53.213Z,7.63
2023-04-08T04:28:20.434Z,8.55
2023-04-08T04:30:47.784Z,9.90
2023-04-08T04:33:15.076Z,10.05
2023-04-08T04:35:42.413Z,11.73
2023-04-08T04:38:12.657Z,8.13
2023-04-08T04:40:40.000Z,9.77
2023-04-08T04:43:07.307Z,11.65
2023-04-08T04:45:34.588Z,10.65
2023-04-08T04:48:02.362Z,12.05
2023-04-08T04:50:29.850Z,14.90
2023-04-08T04:52:57.273Z,19.15
2023-04-08T04:55:24.575Z,16.80
2023-04-08T04:57:51.862Z,14.60
2023-04-08T05:00:19.192Z,16.23
2023-04-08T05:02:47.136Z,17.38
2023-04-08T05:05:14.616Z,17.02
2023-04-08T05:07:41.854Z,14.55
2023-04-08T05:10:09.354Z,23.42
2023-04-08T05:12:38.781Z,23.88
2023-04-08T05:15:06.716Z,24.10
2023-04-08T05:17:34.039Z,29.60
2023-04-08T05:20:01.335Z,19.15
2023-04-08T05:22:28.612Z,16.75
2023-04-08T05:24:56.010Z,19.38
2023-04-08T05:27:23.248Z,18.25
2023-04-08T05:29:50.576Z,15.57
2023-04-08T05:32:17.890Z,14.52
2023-04-08T05:34:45.671Z,15.73
2023-04-08T05:37:13.002Z,16.10
2023-04-08T05:39:40.484Z,13.75
2023-04-08T05:42:07.754Z,14.13
2023-04-08T05:44:35.072Z,13.13
2023-04-08T05:47:02.567Z,13.43
2023-04-08T05:49:29.862Z,12.30
2023-04-08T05:51:57.101Z,14.88
2023-04-08T05:54:24.339Z,10.55
2023-04-08T05:56:51.562Z,8.20
2023-04-08T05:59:18.773Z,7.75
2023-04-08T06:01:46.264Z,9.45
2023-04-08T06:04:13.835Z,13.60
2023-04-08T06:06:43.748Z,10.10
2023-04-08T06:09:11.026Z,8.88
2023-04-08T06:11:38.300Z,11.95
2023-04-08T06:14:07.772Z,10.77
2023-04-08T06:16:35.190Z,8.23
2023-04-08T06:19:02.452Z,10.27
2023-04-08T06:21:29.682Z,9.10
2023-04-08T06:23:56.987Z,9.23
2023-04-08T06:26:24.556Z,11.15
2023-04-08T06:28:52.363Z,11.20
2023-04-08T06:31:19.794Z,11.25
2023-04-08T06:33:47.065Z,9.88
2023-04-08T06:36:14.398Z,9.25
2023-04-08T06:38:41.630Z,9.25
2023-04-08T06:41:09.110Z,8.98
2023-04-08T06:43:38.059Z,8.05
2023-04-08T06:46:05.624Z,10.57
2023-04-08T06:48:32.958Z,10.73
2023-04-08T06:51:03.712Z,10.32
2023-04-08T06:53:32.872Z,7.22
2023-04-08T06:56:00.516Z,7.05
2023-04-08T06:58:27.793Z,10.40
2023-04-08T07:00:58.223Z,8.25
2023-04-08T07:03:25.607Z,7.05
2023-04-08T07:05:53.363Z,8.05
2023-04-08T07:08:20.735Z,8.32
2023-04-08T07:10:48.355Z,6.40
2023-04-08T07:13:15.725Z,7.00
2023-04-08T07:15:43.076Z,7.30
2023-04-08T07:18:10.717Z,7.28
2023-04-08T07:20:38.593Z,10.77
2023-04-08T07:23:06.012Z,8.25
2023-04-08T07:25:35.258Z,10.70
2023-04-08T07:28:02.743Z,6.47
2023-04-08T07:30:30.140Z,6.03
2023-04-08T07:33:00.448Z,6.50
2023-04-08T07:35:28.199Z,7.70
2023-04-08T07:37:55.814Z,9.90
2023-04-08T07:40:23.128Z,8.88
2023-04-08T07:42:50.394Z,10.10
2023-04-08T07:45:17.726Z,9.38
2023-04-08T07:47:45.618Z,6.35
2023-04-08T07:50:12.951Z,7.65
2023-04-08T07:52:40.350Z,7.50
2023-04-08T07:55:07.802Z,11.60
2023-04-08T07:57:35.380Z,7.53
2023-04-08T08:00:03.763Z,9.13
2023-04-08T08:02:31.169Z,8.20
2023-04-08T08:04:58.510Z,8.40
2023-04-08T08:07:25.996Z,9.77
2023-04-08T08:09:53.246Z,12.63
2023-04-08T08:12:20.747Z,10.05
2023-04-08T08:14:48.012Z,9.48
2023-04-08T08:17:15.228Z,14.73
2023-04-08T08:19:42.485Z,11.80
2023-04-08T08:22:09.762Z,6.55
2023-04-08T08:24:38.071Z,5.88
2023-04-08T08:27:06.591Z,10.77
2023-04-08T08:29:33.922Z,5.85
2023-04-08T08:32:01.420Z,9.07
2023-04-08T08:34:28.717Z,5.10
2023-04-08T08:36:56.090Z,7.03
2023-04-08T08:39:23.350Z,8.10
2023-04-08T08:41:50.583Z,7.75
2023-04-08T08:44:17.879Z,6.53
2023-04-08T08:46:46.028Z,7.28
2023-04-08T08:49:13.386Z,8.60
2023-04-08T08:51:45.461Z,6.05
2023-04-08T08:54:13.019Z,7.07
2023-04-08T08:56:40.725Z,6.80
2023-04-08T08:59:08.072Z,7.45
2023-04-08T09:01:37.549Z,4.25
2023-04-08T09:04:22.638Z,6.70
2023-04-08T09:06:51.683Z,6.38
2023-04-08T09:09:19.019Z,8.50
2023-04-08T09:11:47.677Z,8.20
2023-04-08T09:14:21.898Z,7.65
2023-04-08T09:16:49.313Z,8.65
2023-04-08T09:19:16.629Z,7.53
2023-04-08T09:21:44.212Z,7.50
2023-04-08T09:24:27.764Z,4.75
2023-04-08T09:26:55.033Z,4.60
2023-04-08T09:29:26.291Z,8.35
2023-04-08T09:31:58.655Z,8.00
2023-04-08T09:34:27.425Z,6.32
2023-04-08T09:36:56.055Z,7.00
2023-04-08T09:39:23.995Z,7.32
2023-04-08T09:41:52.227Z,7.50
2023-04-08T09:44:21.195Z,7.50
2023-04-08T09:46:52.764Z,7.18
2023-04-08T09:49:27.058Z,8.13
2023-04-08T09:52:00.927Z,10.18
2023-04-08T09:54:33.014Z,4.00
2023-04-08T09:57:09.173Z,8.20
2023-04-08T09:59:38.770Z,5.78
2023-04-08T10:02:08.215Z,8.27
2023-04-08T10:04:37.336Z,10.52
2023-04-08T10:07:05.564Z,9.32
2023-04-08T10:09:32.870Z,6.43
2023-04-08T10:12:00.543Z,14.82
2023-04-08T10:14:28.855Z,10.93
2023-04-08T10:17:23.252Z,11.60
2023-04-08T10:19:50.533Z,10.38
2023-04-08T10:22:30.114Z,10.95
2023-04-08T10:25:17.588Z,13.63
2023-04-08T10:27:45.570Z,15.15
2023-04-08T10:30:25.219Z,11.02
2023-04-08T10:32:52.615Z,11.88
2023-04-08T10:35:30.526Z,10.55
2023-04-08T10:38:01.229Z,7.95
2023-04-08T10:40:28.724Z,7.70
2023-04-08T10:42:56.656Z,10.45
2023-04-08T10:45:24.191Z,8.73
2023-04-08T10:47:51.592Z,8.82
2023-04-08T10:50:20.151Z,7.68
2023-04-08T10:52:50.950Z,10.90
2023-04-08T10:57:46.303Z,9.65
2023-04-08T11:00:18.588Z,8.07
2023-04-08T11:02:46.207Z,11.20
2023-04-08T11:05:13.623Z,8.38
2023-04-08T11:07:42.128Z,10.10
2023-04-08T11:10:09.974Z,10.43
2023-04-08T11:12:38.777Z,12.55
2023-04-08T11:15:06.430Z,7.78
2023-04-08T11:17:35.544Z,7.00
2023-04-08T11:20:06.386Z,8.73
2023-04-08T11:22:34.703Z,12.10
2023-04-08T11:25:02.085Z,12.00
2023-04-08T11:27:29.513Z,7.43
2023-04-08T11:29:57.416Z,10.95
2023-04-08T11:32:25.166Z,9.02
2023-04-08T11:34:54.022Z,7.88
2023-04-08T11:37:22.435Z,9.52
2023-04-08T11:39:49.706Z,8.68
2023-04-08T11:42:37.259Z,10.13
2023-04-08T11:45:12.001Z,11.57
2023-04-08T11:47:39.410Z,9.40
2023-04-08T11:50:07.196Z,7.90
2023-04-08T11:52:47.785Z,8.23
2023-04-08T11:55:25.640Z,6.78
2023-04-08T11:57:53.558Z,10.35
2023-04-08T12:00:21.294Z,7.72
2023-04-08T12:02:49.046Z,6.63
2023-04-08T12:05:18.264Z,11.50
2023-04-08T12:07:45.973Z,10.15
2023-04-08T12:10:13.487Z,8.80
2023-04-08T12:12:41.265Z,5.18
2023-04-08T12:15:08.834Z,12.27
2023-04-08T12:17:39.091Z,13.90
2023-04-08T12:20:06.971Z,7.50
2023-04-08T12:22:34.420Z,7.47
2023-04-08T12:25:03.560Z,9.55
2023-04-08T12:27:35.287Z,7.07
2023-04-08T12:30:03.561Z,9.23
2023-04-08T12:32:30.998Z,6.35
2023-04-08T12:34:58.331Z,5.45
2023-04-08T12:37:25.636Z,14.15
2023-04-08T12:39:52.896Z,6.95
2023-04-08T12:42:20.196Z,4.72
2023-04-08T12:44:47.461Z,9.88
2023-04-08T12:47:14.973Z,6.30
2023-04-08T12:49:49.370Z,6.45
2023-04-08T12:52:17.798Z,10.48
2023-04-08T12:54:45.608Z,9.38
2023-04-08T12:57:12.968Z,6.63
2023-04-08T12:59:40.301Z,5.97
2023-04-08T13:02:08.295Z,5.35
2023-04-08T13:04:35.750Z,9.93
2023-04-08T13:07:04.519Z,3.50
2023-04-08T13:09:32.896Z,7.65
2023-04-08T13:12:00.131Z,4.10
2023-04-08T13:14:27.567Z,15.18
2023-04-08T13:16:54.885Z,7.65
2023-04-08T13:19:22.136Z,8.93
2023-04-08T13:21:49.396Z,5.88
2023-04-08T13:24:16.830Z,4.28
2023-04-08T13:26:44.189Z,4.75
2023-04-08T13:29:11.460Z,9.85
2023-04-08T13:31:38.749Z,9.73
2023-04-08T13:34:06.452Z,5.38
2023-04-08T13:36:33.726Z,5.20
2023-04-08T13:39:01.468Z,5.10
2023-04-08T13:41:28.981Z,4.60
2023-04-08T13:43:56.943Z,5.10
2023-04-08T13:46:24.425Z,5.88
2023-04-08T13:48:52.072Z,3.75
2023-04-08T13:51:19.634Z,4.68
2023-04-08T13:53:47.089Z,6.03
2023-04-08T13:56:14.314Z,4.47
2023-04-08T13:58:41.749Z,6.38
2023-04-08T14:01:09.031Z,6.65
2023-04-08T14:03:36.666Z,6.10
2023-04-08T14:06:03.983Z,7.57
2023-04-08T14:08:31.479Z,5.45
2023-04-08T14:10:59.305Z,8.68
2023-04-08T14:13:26.609Z,4.95
2023-04-08T14:15:55.102Z,8.57
2023-04-08T14:18:22.379Z,10.48
2023-04-08T14:20:49.636Z,5.57
2023-04-08T14:23:17.194Z,6.00
2023-04-08T14:25:44.452Z,6.63
2023-04-08T14:28:12.356Z,5.03
2023-04-08T14:30:39.701Z,6.93
2023-04-08T14:33:07.087Z,5.60
2023-04-08T14:35:34.704Z,15.45
2023-04-08T14:38:01.989Z,4.32
2023-04-08T14:40:29.231Z,3.30
2023-04-08T14:42:56.570Z,4.55
2023-04-08T14:45:23.921Z,4.90
2023-04-08T14:47:51.209Z,4.88
2023-04-08T14:50:19.504Z,4.85
2023-04-08T14:52:48.664Z,3.55
2023-04-08T14:55:16.003Z,14.57
2023-04-08T14:57:43.260Z,6.68
2023-04-08T15:00:10.852Z,2.58
2023-04-08T15:02:38.235Z,4.50
2023-04-08T15:05:05.700Z,3.00
2023-04-08T15:07:32.940Z,7.43
2023-04-08T15:10:00.619Z,3.60
2023-04-08T15:12:29.178Z,3.15
2023-04-08T15:14:56.442Z,2.90
2023-04-08T15:17:23.797Z,3.50
2023-04-08T15:19:51.118Z,3.35
2023-04-08T15:22:18.449Z,3.78
2023-04-08T15:24:47.553Z,3.72
2023-04-08T15:27:16.017Z,3.75
2023-04-08T15:29:43.340Z,9.55
2023-04-08T15:32:10.983Z,4.85
2023-04-08T15:34:38.252Z,6.70
2023-04-08T15:37:06.473Z,4.55
2023-04-08T15:39:33.713Z,7.55
2023-04-08T15:42:01.613Z,3.50
2023-04-08T15:44:32.279Z,4.72
2023-04-08T15:46:59.566Z,6.40
2023-04-08T15:49:26.907Z,8.27
2023-04-08T15:51:54.279Z,6.50
2023-04-08T15:54:21.765Z,3.97
2023-04-08T15:56:49.082Z,4.18
2023-04-08T15:59:16.473Z,6.30
2023-04-08T16:01:43.762Z,4.97
2023-04-08T16:04:11.590Z,3.88
2023-04-08T16:06:39.030Z,4.00
2023-04-08T16:09:06.615Z,4.90
2023-04-08T16:11:34.777Z,6.13
2023-04-08T16:14:02.117Z,5.10
2023-04-08T16:16:29.628Z,4.68
2023-04-08T16:18:56.932Z,2.83
2023-04-08T16:21:24.253Z,4.38
2023-04-08T16:23:51.899Z,5.78
2023-04-08T16:26:19.877Z,6.18
2023-04-08T16:28:47.299Z,6.97
2023-04-08T16:31:14.732Z,5.38
2023-04-08T16:33:42.036Z,7.55
2023-04-08T16:36:09.444Z,4.70
2023-04-08T16:38:36.759Z,7.05
2023-04-08T16:41:06.390Z,4.20
2023-04-08T16:43:33.708Z,4.68
2023-04-08T16:46:01.042Z,4.85
2023-04-08T16:48:28.316Z,3.42
2023-04-08T16:50:55.596Z,4.75
2023-04-08T16:53:22.894Z,5.10
2023-04-08T16:55:50.117Z,3.10
2023-04-08T16:58:17.512Z,3.17
2023-04-08T17:00:44.776Z,7.50
2023-04-08T17:03:12.358Z,3.17
2023-04-08T17:05:40.354Z,3.85
2023-04-08T17:08:07.880Z,5.68
2023-04-08T17:10:35.234Z,7.50
2023-04-08T17:13:05.251Z,6.38
2023-04-08T17:15:32.642Z,5.45
2023-04-08T17:18:00.168Z,6.93
2023-04-08T17:20:27.849Z,4.60
2023-04-08T17:22:55.102Z,3.92
2023-04-08T17:25:22.450Z,5.50
2023-04-08T17:27:49.733Z,5.82
2023-04-08T17:30:17.004Z,6.25
2023-04-08T17:32:44.400Z,6.97
2023-04-08T17:35:11.712Z,7.15
2023-04-08T17:37:38.938Z,4.43
2023-04-08T17:40:07.068Z,6.05
2023-04-08T17:42:34.501Z,7.22
2023-04-08T17:45:02.737Z,5.88
2023-04-08T17:47:30.064Z,6.07
2023-04-08T17:49:57.567Z,7.93
2023-04-08T17:52:24.831Z,6.80
2023-04-08T17:54:52.127Z,10.15
2023-04-08T17:57:19.783Z,9.57
2023-04-08T17:59:47.159Z,8.05
2023-04-08T18:02:14.423Z,9.32
2023-04-08T18:04:42.478Z,7.10
2023-04-08T18:07:09.800Z,7.57
2023-04-08T18:09:37.061Z,5.68
2023-04-08T18:12:04.360Z,8.48
2023-04-08T18:14:31.703Z,8.57
2023-04-08T18:16:59.046Z,6.10
2023-04-08T18:19:26.697Z,6.90
2023-04-08T18:21:55.200Z,5.53
2023-04-08T18:24:22.533Z,8.02
2023-04-08T18:27:01.460Z,8.93
2023-04-08T18:29:31.485Z,8.70
2023-04-08T18:31:58.725Z,5.60
2023-04-08T18:34:26.787Z,6.63
2023-04-08T18:36:54.094Z,9.63
2023-04-08T18:39:21.552Z,5.32
2023-04-08T18:41:48.791Z,5.85
2023-04-08T18:44:16.632Z,5.28
2023-04-08T18:46:45.788Z,7.40
2023-04-08T18:49:13.080Z,5.85
2023-04-08T18:51:42.167Z,4.47
2023-04-08T18:54:13.712Z,6.25
2023-04-08T18:56:41.200Z,6.75
2023-04-08T18:59:08.841Z,4.25
2023-04-08T19:01:36.481Z,5.15
2023-04-08T19:04:03.845Z,4.95
2023-04-08T19:06:33.756Z,5.90
2023-04-08T19:09:01.137Z,4.75
2023-04-08T19:11:29.177Z,6.20
2023-04-08T19:13:56.919Z,7.47
2023-04-08T19:16:24.360Z,5.32
2023-04-08T19:18:52.828Z,3.30
2023-04-08T19:21:20.508Z,6.13
2023-04-08T19:23:49.222Z,8.40
2023-04-08T19:26:17.429Z,6.72
2023-04-08T19:28:44.737Z,6.22
2023-04-08T19:31:16.125Z,4.25
2023-04-08T19:33:43.397Z,5.70
2023-04-08T19:36:11.529Z,7.53
2023-04-08T19:38:39.222Z,10.35
2023-04-08T19:41:06.534Z,8.07
2023-04-08T19:43:33.837Z,7.95
2023-04-08T19:46:01.172Z,11.52
2023-04-08T19:48:28.408Z,10.65
2023-04-08T19:50:55.746Z,12.30
2023-04-08T19:53:23.039Z,9.20
2023-04-08T19:55:50.311Z,12.32
2023-04-08T19:58:18.483Z,12.02
2023-04-08T20:00:45.749Z,12.68
2023-04-08T20:03:13.980Z,8.40
2023-04-08T20:05:41.757Z,8.68
2023-04-08T20:08:09.189Z,7.47
2023-04-08T20:10:36.490Z,4.68
2023-04-08T20:13:03.764Z,5.93
2023-04-08T20:15:31.088Z,6.50
2023-04-08T20:17:58.378Z,6.25
2023-04-08T20:20:26.289Z,4.97
2023-04-08T20:22:54.913Z,4.47
2023-04-08T20:25:22.748Z,4.57
2023-04-08T20:27:50.100Z,6.65
2023-04-08T20:30:17.406Z,7.85
2023-04-08T20:32:44.670Z,5.25
2023-04-08T20:35:12.006Z,3.75
2023-04-08T20:37:39.303Z,5.68
2023-04-08T20:40:07.000Z,5.63
2023-04-08T20:42:34.268Z,5.43
2023-04-08T20:45:01.553Z,5.03
2023-04-08T20:47:28.867Z,4.03
2023-04-08T20:49:56.143Z,3.90
2023-04-08T20:52:23.486Z,7.97
2023-04-08T20:54:51.184Z,6.55
2023-04-08T20:57:18.567Z,6.03
2023-04-08T20:59:45.847Z,7.72
2023-04-08T21:02:13.336Z,6.80
2023-04-08T21:04:40.808Z,6.65
2023-04-08T21:07:08.135Z,6.13
2023-04-08T21:09:35.481Z,4.82
2023-04-08T21:12:03.091Z,8.38
2023-04-08T21:14:32.064Z,7.03
2023-04-08T21:16:59.321Z,8.30
2023-04-08T21:19:26.605Z,9.05
2023-04-08T21:21:53.883Z,8.52
2023-04-08T21:24:21.390Z,9.00
2023-04-08T21:26:48.668Z,7.53
2023-04-08T21:29:16.294Z,6.88
2023-04-08T21:31:43.622Z,9.70
2023-04-08T21:34:11.431Z,8.95
2023-04-08T21:36:39.611Z,7.80
2023-04-08T21:39:07.064Z,7.50
2023-04-08T21:41:34.359Z,6.97
2023-04-08T21:44:01.747Z,6.40
2023-04-08T21:46:31.322Z,5.00
2023-04-08T21:48:58.597Z,8.27
2023-04-08T21:51:26.470Z,7.22
2023-04-08T21:53:53.910Z,6.28
2023-04-08T21:56:22.257Z,7.07
2023-04-08T21:58:49.728Z,7.90
2023-04-08T22:01:17.335Z,8.50
2023-04-08T22:03:44.885Z,15.10
2023-04-08T22:06:19.157Z,9.73
2023-04-08T22:08:53.285Z,10.25
2023-04-08T22:11:20.760Z,9.60
2023-04-08T22:13:48.043Z,7.15
2023-04-08T22:16:15.524Z,10.88
2023-04-08T22:18:42.815Z,9.70
2023-04-08T22:21:10.067Z,14.18
2023-04-08T22:23:37.305Z,15.52
2023-04-08T22:26:04.926Z,13.32
2023-04-08T22:28:34.306Z,20.50
2023-04-08T22:31:01.705Z,16.70
2023-04-08T22:33:29.102Z,16.35
2023-04-08T22:35:57.910Z,15.70
2023-04-08T22:38:27.700Z,14.93
2023-04-08T22:40:54.989Z,11.15
2023-04-08T22:43:22.411Z,10.00
2023-04-08T22:45:49.690Z,14.45
2023-04-08T22:48:16.965Z,14.57
2023-04-08T22:50:44.217Z,21.15
2023-04-08T22:53:11.943Z,11.10
2023-04-08T22:55:39.229Z,11.65
2023-04-08T22:58:06.453Z,12.52
2023-04-08T23:00:33.677Z,13.25
2023-04-08T23:03:04.849Z,10.88
2023-04-08T23:05:32.325Z,10.60
2023-04-08T23:07:59.604Z,14.43
2023-04-08T23:10:26.901Z,14.15
2023-04-08T23:12:54.197Z,13.07
2023-04-08T23:15:21.708Z,12.38
2023-04-08T23:17:49.020Z,13.10
2023-04-08T23:20:16.362Z,10.43
2023-04-08T23:22:43.594Z,14.50
2023-04-08T23:25:11.006Z,13.70
2023-04-08T23:27:38.284Z,15.27
2023-04-08T23:30:06.038Z,15.38
2023-04-08T23:32:33.831Z,13.48
2023-04-08T23:35:01.511Z,18.10
2023-04-08T23:37:29.500Z,16.08
2023-04-08T23:39:56.766Z,13.57
2023-04-08T23:42:27.210Z,12.20
2023-04-08T23:44:55.027Z,12.57
2023-04-08T23:47:22.480Z,16.88
2023-04-08T23:49:49.750Z,13.20
2023-04-08T23:52:17.098Z,13.15
2023-04-08T23:54:44.349Z,21.17
2023-04-08T23:57:11.682Z,13.88
2023-04-08T23:59:38.969Z,15.60
